createdAt,value
2023-01-12T00:02:23.253Z,17.20
2023-01-12T00:04:52.019Z,17.90
2023-01-12T00:07:20.775Z,18.90
2023-01-12T00:09:49.199Z,17.60
2023-01-12T00:12:17.325Z,17.60
2023-01-12T00:14:45.588Z,18.60
2023-01-12T00:17:17.231Z,16.60
2023-01-12T00:19:45.472Z,15.90
2023-01-12T00:22:14.291Z,16.50
2023-01-12T00:24:45.061Z,16.70
2023-01-12T00:27:16.192Z,15.60
2023-01-12T00:29:44.602Z,13.50
2023-01-12T00:32:16.285Z,11.90
2023-01-12T00:34:45.299Z,10.20
2023-01-12T00:37:13.851Z,10.70
2023-01-12T00:39:45.821Z,10.20
2023-01-12T00:50:22.954Z,10.80
2023-01-12T00:52:51.475Z,10.30
2023-01-12T00:55:19.881Z,10.90
2023-01-12T00:57:48.236Z,11.10
2023-01-12T01:00:17.979Z,11.40
2023-01-12T01:02:46.599Z,10.90
2023-01-12T01:05:15.134Z,11.50
2023-01-12T01:07:44.025Z,12.20
2023-01-12T01:10:13.266Z,13.20
2023-01-12T01:12:42.081Z,12.30
2023-01-12T01:15:10.916Z,14.20
2023-01-12T01:17:39.172Z,15.60
2023-01-12T01:20:08.212Z,14.30
2023-01-12T01:22:36.905Z,16.10
2023-01-12T01:25:05.596Z,15.80
2023-01-12T01:27:33.786Z,15.00
2023-01-12T01:30:02.051Z,15.50
2023-01-12T01:32:31.191Z,15.70
2023-01-12T01:34:59.383Z,16.50
2023-01-12T01:37:28.712Z,12.90
2023-01-12T01:39:56.834Z,15.70
2023-01-12T01:42:28.608Z,16.20
2023-01-12T01:45:01.179Z,15.90
2023-01-12T01:47:36.636Z,14.30
2023-01-12T01:50:15.038Z,14.70
2023-01-12T01:52:47.820Z,14.90
2023-01-12T01:55:21.942Z,15.20
2023-01-12T01:58:01.211Z,15.00
2023-01-12T02:00:29.939Z,15.10
2023-01-12T02:03:00.076Z,17.60
2023-01-12T02:05:29.257Z,17.40
2023-01-12T02:08:07.242Z,18.10
2023-01-12T02:10:36.870Z,17.60
2023-01-12T02:13:24.034Z,17.90
2023-01-12T02:16:25.346Z,18.80
2023-01-12T02:19:16.544Z,19.30
2023-01-12T02:22:21.060Z,17.10
2023-01-12T02:24:58.818Z,18.20
2023-01-12T02:27:39.639Z,17.60
2023-01-12T02:30:47.369Z,17.20
2023-01-12T02:33:28.009Z,17.20
2023-01-12T02:36:23.270Z,17.50
2023-01-12T02:39:15.755Z,17.70
2023-01-12T02:42:09.352Z,19.70
2023-01-12T02:44:48.059Z,19.00
2023-01-12T02:47:21.308Z,17.40
2023-01-12T02:49:53.063Z,17.80
2023-01-12T02:52:25.870Z,16.70
2023-01-12T02:54:55.533Z,17.40
2023-01-12T02:57:25.945Z,18.30
2023-01-12T02:59:56.571Z,20.20
2023-01-12T03:02:26.015Z,17.70
2023-01-12T03:04:54.960Z,19.90
2023-01-12T03:07:39.390Z,21.20
2023-01-12T03:10:19.927Z,17.80
2023-01-12T03:12:51.581Z,19.40
2023-01-12T03:15:20.343Z,16.00
2023-01-12T03:18:03.485Z,16.80
2023-01-12T03:20:38.503Z,14.80
2023-01-12T03:23:12.228Z,16.00
2023-01-12T03:25:45.095Z,15.40
2023-01-12T03:28:17.093Z,15.90
2023-01-12T03:30:55.142Z,14.70
2023-01-12T03:33:24.836Z,14.40
2023-01-12T03:36:14.243Z,14.10
2023-01-12T03:38:50.501Z,14.40
2023-01-12T03:41:37.181Z,14.00
2023-01-12T03:44:11.123Z,14.00
2023-01-12T03:46:47.430Z,15.10
2023-01-12T03:49:45.944Z,14.60
2023-01-12T03:52:15.905Z,14.80
2023-01-12T03:54:46.743Z,14.10
2023-01-12T03:57:15.620Z,13.20
2023-01-12T03:59:44.030Z,11.80
2023-01-12T04:02:13.209Z,12.10
2023-01-12T04:04:41.887Z,10.70
2023-01-12T04:07:11.027Z,11.40
2023-01-12T04:09:39.209Z,10.90
2023-01-12T04:12:10.457Z,10.30
2023-01-12T04:14:45.057Z,10.50
2023-01-12T04:17:15.416Z,10.20
2023-01-12T04:19:44.283Z,9.50
2023-01-12T04:22:35.591Z,9.70
2023-01-12T04:25:04.783Z,9.50
2023-01-12T04:27:33.433Z,9.50
2023-01-12T04:30:01.924Z,9.70
2023-01-12T04:32:30.467Z,9.10
2023-01-12T04:34:58.798Z,9.70
2023-01-12T04:37:27.392Z,9.70
2023-01-12T04:39:55.544Z,10.00
2023-01-12T04:42:53.577Z,9.60
2023-01-12T04:45:22.889Z,8.70
2023-01-12T04:47:51.722Z,9.70
2023-01-12T04:50:20.288Z,9.60
2023-01-12T04:52:48.623Z,10.20
2023-01-12T04:55:17.049Z,10.00
2023-01-12T04:57:45.278Z,10.80
2023-01-12T05:00:13.760Z,9.20
2023-01-12T05:02:41.977Z,9.50
2023-01-12T05:05:10.460Z,10.50
2023-01-12T05:07:58.693Z,11.10
2023-01-12T05:10:30.235Z,11.00
2023-01-12T05:12:58.578Z,10.50
2023-01-12T05:15:27.147Z,11.80
2023-01-12T05:17:57.509Z,11.10
2023-01-12T05:20:25.871Z,11.90
2023-01-12T05:22:55.441Z,9.80
2023-01-12T05:25:24.133Z,11.20
2023-01-12T05:27:58.398Z,9.90
2023-01-12T05:30:31.422Z,10.30
2023-01-12T05:33:00.615Z,9.70
2023-01-12T05:35:28.964Z,9.30
2023-01-12T05:37:57.711Z,9.70
2023-01-12T05:40:26.002Z,9.80
2023-01-12T05:43:12.773Z,10.50
2023-01-12T05:45:41.356Z,10.40
2023-01-12T05:48:09.726Z,10.50
2023-01-12T05:50:37.978Z,11.20
2023-01-12T05:53:10.744Z,11.50
2023-01-12T05:55:39.759Z,10.00
2023-01-12T05:58:08.924Z,10.30
2023-01-12T06:00:37.562Z,11.20
2023-01-12T06:03:06.299Z,10.30
2023-01-12T06:05:34.780Z,9.40
2023-01-12T06:08:03.319Z,9.80
2023-01-12T06:10:34.602Z,12.30
2023-01-12T06:13:21.768Z,11.30
2023-01-12T06:15:50.198Z,10.00
2023-01-12T06:18:19.123Z,9.30
2023-01-12T06:20:47.729Z,10.90
2023-01-12T06:23:16.291Z,9.30
2023-01-12T06:25:44.604Z,11.60
2023-01-12T06:28:14.233Z,11.00
2023-01-12T06:30:42.857Z,14.70
2023-01-12T06:33:11.443Z,15.20
2023-01-12T06:35:39.615Z,14.80
2023-01-12T06:38:07.999Z,16.10
2023-01-12T06:40:36.245Z,16.60
2023-01-12T06:43:04.477Z,15.00
2023-01-12T06:45:32.913Z,15.30
2023-01-12T06:48:01.311Z,15.10
2023-01-12T06:50:29.519Z,13.40
2023-01-12T06:56:08.324Z,15.00
2023-01-12T06:58:37.071Z,15.30
2023-01-12T07:01:05.608Z,15.50
2023-01-12T07:03:33.940Z,16.80
2023-01-12T07:06:02.604Z,16.40
2023-01-12T07:08:32.736Z,17.10
2023-01-12T07:11:04.130Z,17.30
2023-01-12T07:13:33.073Z,15.90
2023-01-12T07:16:02.641Z,14.00
2023-01-12T07:18:31.594Z,13.30
2023-01-12T07:21:04.716Z,12.50
2023-01-12T07:23:33.239Z,12.50
2023-01-12T07:26:01.901Z,13.80
2023-01-12T07:28:31.657Z,14.80
2023-01-12T07:31:07.179Z,15.50
2023-01-12T07:36:07.367Z,16.70
2023-01-12T07:38:35.636Z,14.30
2023-01-12T07:41:04.931Z,14.90
2023-01-12T07:43:33.902Z,14.80
2023-01-12T07:46:02.398Z,13.10
2023-01-12T07:48:30.961Z,13.40
2023-01-12T07:50:59.729Z,12.90
2023-01-12T07:53:28.721Z,13.50
2023-01-12T07:55:59.876Z,12.50
2023-01-12T07:58:30.755Z,10.90
2023-01-12T08:01:00.722Z,11.50
2023-01-12T08:03:29.477Z,14.30
2023-01-12T08:05:58.310Z,14.20
2023-01-12T08:08:26.443Z,13.80
2023-01-12T08:10:55.049Z,13.90
2023-01-12T08:13:26.171Z,14.60
2023-01-12T08:15:56.459Z,13.50
2023-01-12T08:18:38.229Z,13.00
2023-01-12T08:21:13.177Z,13.00
2023-01-12T08:23:47.460Z,11.90
2023-01-12T08:26:23.983Z,12.50
2023-01-12T08:29:18.108Z,12.90
2023-01-12T08:31:47.648Z,10.70
2023-01-12T08:34:16.456Z,13.30
2023-01-12T08:36:45.109Z,12.40
2023-01-12T08:39:13.614Z,13.90
2023-01-12T08:41:43.043Z,12.70
2023-01-12T08:44:11.318Z,13.20
2023-01-12T08:46:50.025Z,13.50
2023-01-12T08:49:21.870Z,13.00
2023-01-12T08:51:51.802Z,14.10
2023-01-12T08:54:21.086Z,13.60
2023-01-12T08:56:49.735Z,12.30
2023-01-12T08:59:19.785Z,13.00
2023-01-12T09:01:49.127Z,14.00
2023-01-12T09:04:18.754Z,11.60
2023-01-12T09:06:48.725Z,14.70
2023-01-12T09:09:20.409Z,15.20
2023-01-12T09:11:50.838Z,16.90
2023-01-12T09:14:20.032Z,16.10
2023-01-12T09:16:49.684Z,14.90
2023-01-12T09:19:18.681Z,16.30
2023-01-12T09:21:47.834Z,16.60
2023-01-12T09:24:16.821Z,17.60
2023-01-12T09:26:49.884Z,17.80
2023-01-12T09:29:19.301Z,17.80
2023-01-12T09:31:49.128Z,17.00
2023-01-12T09:34:18.145Z,15.40
2023-01-12T09:36:46.722Z,17.50
2023-01-12T09:39:32.763Z,17.10
2023-01-12T09:42:19.759Z,14.00
2023-01-12T09:45:10.532Z,15.90
2023-01-12T09:47:47.948Z,15.40
2023-01-12T09:50:28.681Z,14.70
2023-01-12T09:53:03.990Z,10.90
2023-01-12T09:56:09.000Z,12.40
2023-01-12T09:59:04.167Z,13.40
2023-01-12T10:01:33.486Z,11.80
2023-01-12T10:04:03.773Z,9.70
2023-01-12T10:06:34.494Z,10.20
2023-01-12T10:09:14.795Z,7.50
2023-01-12T10:11:48.925Z,10.70
2023-01-12T10:15:02.221Z,8.10
2023-01-12T10:17:58.954Z,10.30
2023-01-12T10:20:37.793Z,10.40
2023-01-12T10:23:09.299Z,7.00
2023-01-12T10:25:50.207Z,9.90
2023-01-12T10:28:33.656Z,11.90
2023-01-12T10:31:02.574Z,7.10
2023-01-12T10:33:34.787Z,10.00
2023-01-12T10:36:20.310Z,7.20
2023-01-12T10:38:52.930Z,12.30
2023-01-12T10:41:23.999Z,12.20
2023-01-12T10:43:58.946Z,12.70
2023-01-12T10:46:32.578Z,5.90
2023-01-12T10:49:24.443Z,12.90
2023-01-12T10:51:55.732Z,4.90
2023-01-12T10:54:31.787Z,11.00
2023-01-12T10:57:04.031Z,14.20
2023-01-12T10:59:34.791Z,12.90
2023-01-12T11:02:09.662Z,11.00
2023-01-12T11:04:45.732Z,11.50
2023-01-12T11:07:27.542Z,14.20
2023-01-12T11:10:19.441Z,9.80
2023-01-12T11:13:06.753Z,8.00
2023-01-12T11:15:40.464Z,13.00
2023-01-12T11:18:41.696Z,8.80
2023-01-12T11:21:15.208Z,12.50
2023-01-12T11:23:43.968Z,13.50
2023-01-12T11:26:27.724Z,13.50
2023-01-12T11:29:02.337Z,13.50
2023-01-12T11:31:39.827Z,12.90
2023-01-12T11:34:17.211Z,10.90
2023-01-12T11:37:01.334Z,8.20
2023-01-12T11:39:31.607Z,12.10
2023-01-12T11:42:21.822Z,13.70
2023-01-12T11:45:06.599Z,14.40
2023-01-12T11:47:46.479Z,12.40
2023-01-12T11:50:17.823Z,13.40
2023-01-12T11:52:47.577Z,11.10
2023-01-12T11:55:34.335Z,12.60
2023-01-12T11:58:20.741Z,13.40
2023-01-12T12:01:04.426Z,12.00
2023-01-12T12:03:43.009Z,16.70
2023-01-12T12:06:25.076Z,13.50
2023-01-12T12:09:00.516Z,13.50
2023-01-12T12:11:55.147Z,13.80
2023-01-12T12:15:00.052Z,14.40
2023-01-12T12:18:01.037Z,13.40
2023-01-12T12:20:44.074Z,10.30
2023-01-12T12:23:28.169Z,11.00
2023-01-12T12:26:17.352Z,11.10
2023-01-12T12:29:20.201Z,10.80
2023-01-12T12:32:13.893Z,10.40
2023-01-12T12:34:44.123Z,10.60
2023-01-12T12:37:40.325Z,11.50
2023-01-12T12:40:52.938Z,10.90
2023-01-12T12:43:53.709Z,11.40
2023-01-12T12:46:52.006Z,11.60
2023-01-12T12:49:28.305Z,10.70
2023-01-12T12:51:58.364Z,10.80
2023-01-12T12:54:28.130Z,9.90
2023-01-12T12:56:57.714Z,10.10
2023-01-12T12:59:32.659Z,10.40
2023-01-12T13:02:03.758Z,10.00
2023-01-12T13:04:44.826Z,11.80
2023-01-12T13:07:22.509Z,10.70
2023-01-12T13:09:51.424Z,11.50
2023-01-12T13:12:34.459Z,12.10
2023-01-12T13:15:32.936Z,11.10
2023-01-12T13:18:04.642Z,11.60
2023-01-12T13:20:53.110Z,11.10
2023-01-12T13:23:46.065Z,11.60
2023-01-12T13:26:48.128Z,11.70
2023-01-12T13:29:29.119Z,11.10
2023-01-12T13:32:19.474Z,11.40
2023-01-12T13:34:48.514Z,11.70
2023-01-12T13:37:39.042Z,11.60
2023-01-12T13:40:20.319Z,12.10
2023-01-12T13:43:09.159Z,12.40
2023-01-12T13:45:37.892Z,12.80
2023-01-12T13:48:09.686Z,13.30
2023-01-12T13:50:46.929Z,13.70
2023-01-12T13:53:28.595Z,13.30
2023-01-12T13:56:04.133Z,12.30
2023-01-12T13:58:41.957Z,13.00
2023-01-12T14:01:25.527Z,12.30
2023-01-12T14:03:54.603Z,11.50
2023-01-12T14:06:37.098Z,11.90
2023-01-12T14:09:21.702Z,11.40
2023-01-12T14:12:00.607Z,11.90
2023-01-12T14:14:54.299Z,12.10
2023-01-12T14:17:53.399Z,11.60
2023-01-12T14:20:27.554Z,12.80
2023-01-12T14:23:17.844Z,12.30
2023-01-12T14:26:02.851Z,12.70
2023-01-12T14:28:32.548Z,12.80
2023-01-12T14:31:02.682Z,12.10
2023-01-12T14:33:34.050Z,15.40
2023-01-12T14:36:07.028Z,12.80
2023-01-12T14:38:40.014Z,10.90
2023-01-12T14:41:35.204Z,10.80
2023-01-12T14:44:24.788Z,10.90
2023-01-12T14:46:54.415Z,10.90
2023-01-12T14:49:31.576Z,11.90
2023-01-12T14:52:02.903Z,11.90
2023-01-12T14:54:34.678Z,12.10
2023-01-12T14:57:03.145Z,11.10
2023-01-12T14:59:36.050Z,11.80
2023-01-12T15:02:21.675Z,12.90
2023-01-12T15:05:06.635Z,13.30
2023-01-12T15:07:41.569Z,12.30
2023-01-12T15:10:11.058Z,11.60
2023-01-12T15:12:47.293Z,12.00
2023-01-12T15:15:20.533Z,10.30
2023-01-12T15:18:09.507Z,11.10
2023-01-12T15:21:05.871Z,13.40
2023-01-12T15:23:55.086Z,14.60
2023-01-12T15:26:24.803Z,13.50
2023-01-12T15:28:55.569Z,14.70
2023-01-12T15:31:36.386Z,13.40
2023-01-12T15:34:06.719Z,13.40
2023-01-12T15:36:35.555Z,12.10
2023-01-12T15:39:04.600Z,11.80
2023-01-12T15:41:51.293Z,11.70
2023-01-12T15:44:21.888Z,12.40
2023-01-12T15:46:52.172Z,12.60
2023-01-12T15:49:22.489Z,13.10
2023-01-12T15:51:51.707Z,12.10
2023-01-12T15:54:23.786Z,12.20
2023-01-12T15:56:54.363Z,12.50
2023-01-12T15:59:23.891Z,12.90
2023-01-12T16:02:04.814Z,12.40
2023-01-12T16:04:43.559Z,13.60
2023-01-12T16:07:13.473Z,13.20
2023-01-12T16:09:42.756Z,19.60
2023-01-12T16:12:11.391Z,14.30
2023-01-12T16:14:40.259Z,13.60
2023-01-12T16:17:09.401Z,14.30
2023-01-12T16:19:44.679Z,13.60
2023-01-12T16:22:25.585Z,13.50
2023-01-12T16:24:57.885Z,13.60
2023-01-12T16:27:28.370Z,12.80
2023-01-12T16:29:57.613Z,11.70
2023-01-12T16:32:28.216Z,12.20
2023-01-12T16:34:56.848Z,10.90
2023-01-12T16:37:28.128Z,12.00
2023-01-12T16:39:57.149Z,12.90
2023-01-12T16:42:27.279Z,12.70
2023-01-12T16:44:56.740Z,13.20
2023-01-12T16:47:26.015Z,14.10
2023-01-12T16:49:55.365Z,13.20
2023-01-12T16:52:24.867Z,13.70
2023-01-12T16:54:54.183Z,13.30
2023-01-12T16:57:23.948Z,14.50
2023-01-12T16:59:52.775Z,14.00
2023-01-12T17:02:21.991Z,14.20
2023-01-12T17:04:53.728Z,15.80
2023-01-12T17:07:23.420Z,15.70
2023-01-12T17:09:52.460Z,15.00
2023-01-12T17:12:21.214Z,15.10
2023-01-12T17:14:50.763Z,15.50
2023-01-12T17:17:20.181Z,16.20
2023-01-12T17:19:49.404Z,16.70
2023-01-12T17:22:18.651Z,15.80
2023-01-12T17:24:47.196Z,15.30
2023-01-12T17:27:16.312Z,14.50
2023-01-12T17:29:48.285Z,15.00
2023-01-12T17:32:17.984Z,16.30
2023-01-12T17:34:48.572Z,16.50
2023-01-12T17:37:17.690Z,16.60
2023-01-12T17:39:47.576Z,15.30
2023-01-12T17:42:36.747Z,16.30
2023-01-12T17:45:07.088Z,17.10
2023-01-12T17:47:36.085Z,17.40
2023-01-12T17:50:05.396Z,19.90
2023-01-12T17:52:34.323Z,17.90
2023-01-12T17:55:03.919Z,18.70
2023-01-12T17:57:32.354Z,18.80
2023-01-12T18:00:00.687Z,18.20
2023-01-12T18:02:29.348Z,19.10
2023-01-12T18:04:57.939Z,19.60
2023-01-12T18:07:26.411Z,19.30
2023-01-12T18:09:54.932Z,20.10
2023-01-12T18:12:26.037Z,20.50
2023-01-12T18:14:57.694Z,19.50
2023-01-12T18:17:26.599Z,19.00
2023-01-12T18:19:56.013Z,17.90
2023-01-12T18:22:25.959Z,17.50
2023-01-12T18:24:54.771Z,15.50
2023-01-12T18:27:23.209Z,17.10
2023-01-12T18:29:51.789Z,17.30
2023-01-12T18:32:20.047Z,17.10
2023-01-12T18:34:48.447Z,16.90
2023-01-12T18:37:17.127Z,17.00
2023-01-12T18:39:45.926Z,18.20
2023-01-12T18:42:32.720Z,17.80
2023-01-12T18:45:04.493Z,19.30
2023-01-12T18:47:51.499Z,18.00
2023-01-12T18:50:38.157Z,20.00
2023-01-12T18:53:25.364Z,20.10
2023-01-12T18:55:59.365Z,19.40
2023-01-12T18:58:31.314Z,22.80
2023-01-12T19:01:22.565Z,23.70
2023-01-12T19:03:52.718Z,23.60
2023-01-12T19:06:43.909Z,21.60
2023-01-12T19:09:31.947Z,22.20
2023-01-12T19:12:02.224Z,23.40
2023-01-12T19:14:49.213Z,23.70
2023-01-12T19:17:33.063Z,24.00
2023-01-12T19:20:06.560Z,22.40
2023-01-12T19:22:53.608Z,23.20
2023-01-12T19:25:42.277Z,24.00
2023-01-12T19:28:34.570Z,23.50
2023-01-12T19:31:06.480Z,22.00
2023-01-12T19:33:35.111Z,22.30
2023-01-12T19:36:14.269Z,22.50
2023-01-12T19:38:50.606Z,22.10
2023-01-12T19:41:51.781Z,20.20
2023-01-12T19:44:20.137Z,20.40
2023-01-12T19:46:48.915Z,20.70
2023-01-12T19:49:17.884Z,19.10
2023-01-12T19:51:47.311Z,19.30
2023-01-12T19:54:15.546Z,18.70
2023-01-12T19:56:47.357Z,20.10
2023-01-12T19:59:15.721Z,19.40
2023-01-12T20:01:51.160Z,22.30
2023-01-12T20:04:19.946Z,21.60
2023-01-12T20:06:48.055Z,21.80
2023-01-12T20:09:16.120Z,22.30
2023-01-12T20:11:44.295Z,21.70
2023-01-12T20:14:12.549Z,23.50
2023-01-12T20:16:41.091Z,23.00
2023-01-12T20:19:09.485Z,22.30
2023-01-12T20:21:37.968Z,23.00
2023-01-12T20:24:06.520Z,22.30
2023-01-12T20:26:35.300Z,19.90
2023-01-12T20:29:04.429Z,21.10
2023-01-12T20:31:36.271Z,20.90
2023-01-12T20:34:05.138Z,19.80
2023-01-12T20:36:34.025Z,20.50
2023-01-12T20:39:02.425Z,20.20
2023-01-12T20:41:31.559Z,21.90
2023-01-12T20:43:59.748Z,21.00
2023-01-12T20:46:28.148Z,20.80
2023-01-12T20:48:57.469Z,22.60
2023-01-12T20:51:26.411Z,21.80
2023-01-12T20:53:56.414Z,22.10
2023-01-12T20:56:26.406Z,23.90
2023-01-12T20:58:54.857Z,23.50
2023-01-12T21:01:23.393Z,23.00
2023-01-12T21:03:51.923Z,22.10
2023-01-12T21:06:20.251Z,22.00
2023-01-12T21:08:48.572Z,20.90
2023-01-12T21:11:20.109Z,23.00
2023-01-12T21:13:48.906Z,24.10
2023-01-12T21:16:19.070Z,22.00
2023-01-12T21:18:47.452Z,25.20
2023-01-12T21:21:15.667Z,24.10
2023-01-12T21:23:44.163Z,24.30
2023-01-12T21:26:12.948Z,24.60
2023-01-12T21:28:41.595Z,23.00
2023-01-12T21:31:12.347Z,23.80
2023-01-12T21:33:40.430Z,23.00
2023-01-12T21:36:10.995Z,24.00
2023-01-12T21:38:39.230Z,24.40
2023-01-12T21:41:07.897Z,23.90
2023-01-12T21:43:36.717Z,22.60
2023-01-12T21:46:09.814Z,22.90
2023-01-12T21:48:38.752Z,23.70
2023-01-12T21:51:11.029Z,22.10
2023-01-12T21:53:42.255Z,22.80
2023-01-12T21:56:13.119Z,24.80
2023-01-12T21:58:41.645Z,24.20
2023-01-12T22:01:14.822Z,24.00
2023-01-12T22:03:43.190Z,25.90
2023-01-12T22:06:13.659Z,25.60
2023-01-12T22:08:42.242Z,24.80
2023-01-12T22:11:14.355Z,25.50
2023-01-12T22:13:43.758Z,30.90
2023-01-12T22:16:15.057Z,31.50
2023-01-12T22:18:47.268Z,30.00
2023-01-12T22:21:16.978Z,28.50
2023-01-12T22:23:45.459Z,31.60
2023-01-12T22:26:15.107Z,27.00
2023-01-12T22:28:46.954Z,32.00
2023-01-12T22:31:20.794Z,28.60
2023-01-12T22:33:55.073Z,27.60
2023-01-12T22:36:23.335Z,24.90
2023-01-12T22:38:51.617Z,25.30
2023-01-12T22:41:22.321Z,25.60
2023-01-12T22:43:53.961Z,25.00
2023-01-12T22:46:25.131Z,25.70
2023-01-12T22:48:59.928Z,25.00
2023-01-12T22:51:29.607Z,24.40
2023-01-12T22:53:58.307Z,24.40
2023-01-12T22:56:26.746Z,26.90
2023-01-12T22:58:56.357Z,25.10
2023-01-12T23:01:25.709Z,23.10
2023-01-12T23:03:55.756Z,24.00
2023-01-12T23:06:25.825Z,25.60
2023-01-12T23:08:53.916Z,25.80
2023-01-12T23:11:25.444Z,24.90
2023-01-12T23:13:55.213Z,25.70
2023-01-12T23:16:23.866Z,26.40
2023-01-12T23:18:53.036Z,23.20
2023-01-12T23:21:25.441Z,24.10
2023-01-12T23:24:00.148Z,21.80
2023-01-12T23:26:32.597Z,24.60
2023-01-12T23:29:03.108Z,23.70
2023-01-12T23:31:33.694Z,23.70
2023-01-12T23:34:02.928Z,24.10
2023-01-12T23:36:31.764Z,22.20
2023-01-12T23:39:03.374Z,23.00
2023-01-12T23:41:35.059Z,23.90
2023-01-12T23:44:06.456Z,24.50
2023-01-12T23:46:41.634Z,25.30
2023-01-12T23:49:12.630Z,24.70
2023-01-12T23:51:41.699Z,25.10
2023-01-12T23:54:16.655Z,26.40
2023-01-12T23:56:45.092Z,26.20
2023-01-12T23:59:14.045Z,28.10
